sensor_id;sensor_type;location;lat;lon;timestamp;P1;durP1;ratioP1;P2;durP2;ratioP2
53062;SDS011;40529;52.172;10.548;2022-10-01T00:00:00;7.03;;;4.93;;
53062;SDS011;40529;52.172;10.548;2022-10-01T00:02:26;7.18;;;5.13;;
53062;SDS011;40529;52.172;10.548;2022-10-01T00:04:52;5.60;;;4.88;;
53062;SDS011;40529;52.172;10.548;2022-10-01T00:07:18;6.57;;;4.68;;
53062;SDS011;40529;52.172;10.548;2022-10-01T00:09:45;8.75;;;5.28;;
53062;SDS011;40529;52.172;10.548;2022-10-01T00:12:11;11.20;;;4.75;;
53062;SDS011;40529;52.172;10.548;2022-10-01T00:14:39;6.68;;;4.82;;
53062;SDS011;40529;52.172;10.548;2022-10-01T00:17:05;7.97;;;5.00;;
53062;SDS011;40529;52.172;10.548;2022-10-01T00:19:31;5.13;;;4.35;;
53062;SDS011;40529;52.172;10.548;2022-10-01T00:21:58;6.22;;;4.72;;
53062;SDS011;40529;52.172;10.548;2022-10-01T00:24:24;7.53;;;4.90;;
53062;SDS011;40529;52.172;10.548;2022-10-01T00:26:50;6.32;;;5.10;;
53062;SDS011;40529;52.172;10.548;2022-10-01T00:29:16;9.05;;;5.43;;
53062;SDS011;40529;52.172;10.548;2022-10-01T00:31:42;6.70;;;5.20;;
53062;SDS011;40529;52.172;10.548;2022-10-01T00:34:08;7.13;;;5.60;;
53062;SDS011;40529;52.172;10.548;2022-10-01T00:36:36;7.18;;;5.07;;
53062;SDS011;40529;52.172;10.548;2022-10-01T00:39:02;7.15;;;4.97;;
53062;SDS011;40529;52.172;10.548;2022-10-01T00:41:29;6.20;;;4.80;;
53062;SDS011;40529;52.172;10.548;2022-10-01T00:43:57;8.45;;;5.32;;
53062;SDS011;40529;52.172;10.548;2022-10-01T00:48:59;7.85;;;5.00;;
53062;SDS011;40529;52.172;10.548;2022-10-01T00:51:27;6.60;;;4.88;;
53062;SDS011;40529;52.172;10.548;2022-10-01T00:53:55;7.28;;;5.05;;
53062;SDS011;40529;52.172;10.548;2022-10-01T00:56:25;6.57;;;4.88;;
53062;SDS011;40529;52.172;10.548;2022-10-01T00:58:52;7.25;;;5.05;;
53062;SDS011;40529;52.172;10.548;2022-10-01T01:01:20;5.50;;;4.18;;
53062;SDS011;40529;52.172;10.548;2022-10-01T01:03:46;4.57;;;4.13;;
53062;SDS011;40529;52.172;10.548;2022-10-01T01:06:12;5.97;;;4.70;;
53062;SDS011;40529;52.172;10.548;2022-10-01T01:08:38;5.90;;;4.75;;
53062;SDS011;40529;52.172;10.548;2022-10-01T01:11:15;6.07;;;5.38;;
53062;SDS011;40529;52.172;10.548;2022-10-01T01:14:01;6.45;;;4.65;;
53062;SDS011;40529;52.172;10.548;2022-10-01T01:16:35;6.07;;;4.20;;
53062;SDS011;40529;52.172;10.548;2022-10-01T01:21:30;6.72;;;4.93;;
53062;SDS011;40529;52.172;10.548;2022-10-01T01:26:50;6.85;;;4.90;;
53062;SDS011;40529;52.172;10.548;2022-10-01T01:31:47;7.77;;;4.20;;
53062;SDS011;40529;52.172;10.548;2022-10-01T01:34:16;8.25;;;5.18;;
53062;SDS011;40529;52.172;10.548;2022-10-01T01:36:44;7.20;;;5.10;;
53062;SDS011;40529;52.172;10.548;2022-10-01T01:39:12;6.07;;;4.53;;
53062;SDS011;40529;52.172;10.548;2022-10-01T01:41:40;8.18;;;5.20;;
53062;SDS011;40529;52.172;10.548;2022-10-01T01:44:08;7.10;;;4.70;;
53062;SDS011;40529;52.172;10.548;2022-10-01T01:46:37;6.25;;;4.10;;
53062;SDS011;40529;52.172;10.548;2022-10-01T01:49:04;6.93;;;3.90;;
53062;SDS011;40529;52.172;10.548;2022-10-01T01:51:40;6.30;;;3.92;;
53062;SDS011;40529;52.172;10.548;2022-10-01T01:54:08;4.93;;;3.53;;
53062;SDS011;40529;52.172;10.548;2022-10-01T01:56:34;4.30;;;3.20;;
53062;SDS011;40529;52.172;10.548;2022-10-01T01:59:00;7.00;;;3.50;;
53062;SDS011;40529;52.172;10.548;2022-10-01T02:01:33;5.88;;;3.50;;
53062;SDS011;40529;52.172;10.548;2022-10-01T02:04:02;5.28;;;3.22;;
53062;SDS011;40529;52.172;10.548;2022-10-01T02:06:33;4.18;;;3.30;;
53062;SDS011;40529;52.172;10.548;2022-10-01T02:09:24;7.03;;;3.22;;
53062;SDS011;40529;52.172;10.548;2022-10-01T02:11:58;5.82;;;3.28;;
53062;SDS011;40529;52.172;10.548;2022-10-01T02:16:59;6.28;;;3.65;;
53062;SDS011;40529;52.172;10.548;2022-10-01T02:19:34;5.13;;;2.90;;
53062;SDS011;40529;52.172;10.548;2022-10-01T02:22:02;7.10;;;3.45;;
53062;SDS011;40529;52.172;10.548;2022-10-01T02:27:17;4.45;;;2.67;;
53062;SDS011;40529;52.172;10.548;2022-10-01T02:29:45;4.78;;;2.70;;
53062;SDS011;40529;52.172;10.548;2022-10-01T02:32:12;5.97;;;2.55;;
53062;SDS011;40529;52.172;10.548;2022-10-01T02:34:38;5.50;;;2.90;;
53062;SDS011;40529;52.172;10.548;2022-10-01T02:37:05;5.13;;;2.50;;
53062;SDS011;40529;52.172;10.548;2022-10-01T02:39:31;5.65;;;2.60;;
53062;SDS011;40529;52.172;10.548;2022-10-01T02:41:58;4.28;;;2.60;;
53062;SDS011;40529;52.172;10.548;2022-10-01T02:44:27;3.60;;;2.60;;
53062;SDS011;40529;52.172;10.548;2022-10-01T02:47:05;4.38;;;2.60;;
53062;SDS011;40529;52.172;10.548;2022-10-01T02:49:32;6.03;;;2.47;;
53062;SDS011;40529;52.172;10.548;2022-10-01T02:54:29;4.03;;;2.58;;
53062;SDS011;40529;52.172;10.548;2022-10-01T02:56:57;3.38;;;2.33;;
53062;SDS011;40529;52.172;10.548;2022-10-01T02:59:41;5.28;;;2.75;;
53062;SDS011;40529;52.172;10.548;2022-10-01T03:02:07;2.70;;;2.30;;
53062;SDS011;40529;52.172;10.548;2022-10-01T03:04:33;4.43;;;2.70;;
53062;SDS011;40529;52.172;10.548;2022-10-01T03:06:59;4.40;;;2.40;;
53062;SDS011;40529;52.172;10.548;2022-10-01T03:09:31;2.25;;;1.88;;
53062;SDS011;40529;52.172;10.548;2022-10-01T03:11:58;5.65;;;2.38;;
53062;SDS011;40529;52.172;10.548;2022-10-01T03:14:25;3.90;;;2.10;;
53062;SDS011;40529;52.172;10.548;2022-10-01T03:16:51;5.28;;;2.50;;
53062;SDS011;40529;52.172;10.548;2022-10-01T03:19:17;4.88;;;2.15;;
53062;SDS011;40529;52.172;10.548;2022-10-01T03:21:44;4.30;;;2.05;;
53062;SDS011;40529;52.172;10.548;2022-10-01T03:24:10;2.92;;;2.10;;
53062;SDS011;40529;52.172;10.548;2022-10-01T03:26:36;3.10;;;2.10;;
53062;SDS011;40529;52.172;10.548;2022-10-01T03:29:02;4.25;;;2.00;;
53062;SDS011;40529;52.172;10.548;2022-10-01T03:31:28;3.13;;;1.85;;
53062;SDS011;40529;52.172;10.548;2022-10-01T03:33:54;4.22;;;2.10;;
53062;SDS011;40529;52.172;10.548;2022-10-01T03:38:50;2.22;;;1.80;;
53062;SDS011;40529;52.172;10.548;2022-10-01T03:41:16;3.40;;;1.75;;
53062;SDS011;40529;52.172;10.548;2022-10-01T03:43:42;3.70;;;1.65;;
53062;SDS011;40529;52.172;10.548;2022-10-01T03:46:08;3.25;;;2.03;;
53062;SDS011;40529;52.172;10.548;2022-10-01T03:48:35;3.72;;;1.67;;
53062;SDS011;40529;52.172;10.548;2022-10-01T03:51:01;2.60;;;1.70;;
53062;SDS011;40529;52.172;10.548;2022-10-01T03:53:28;2.90;;;1.70;;
53062;SDS011;40529;52.172;10.548;2022-10-01T03:55:55;2.38;;;1.80;;
53062;SDS011;40529;52.172;10.548;2022-10-01T03:58:21;4.32;;;1.80;;
53062;SDS011;40529;52.172;10.548;2022-10-01T04:00:48;6.38;;;2.63;;
53062;SDS011;40529;52.172;10.548;2022-10-01T04:03:14;3.40;;;1.80;;
53062;SDS011;40529;52.172;10.548;2022-10-01T04:05:43;3.78;;;2.10;;
53062;SDS011;40529;52.172;10.548;2022-10-01T04:08:10;4.22;;;2.00;;
53062;SDS011;40529;52.172;10.548;2022-10-01T04:10:36;2.42;;;2.00;;
53062;SDS011;40529;52.172;10.548;2022-10-01T04:13:03;2.72;;;2.00;;
53062;SDS011;40529;52.172;10.548;2022-10-01T04:15:29;3.17;;;1.88;;
53062;SDS011;40529;52.172;10.548;2022-10-01T04:17:56;3.03;;;1.92;;
53062;SDS011;40529;52.172;10.548;2022-10-01T04:20:22;4.75;;;2.10;;
53062;SDS011;40529;52.172;10.548;2022-10-01T04:22:49;4.50;;;2.00;;
53062;SDS011;40529;52.172;10.548;2022-10-01T04:25:15;4.05;;;2.08;;
53062;SDS011;40529;52.172;10.548;2022-10-01T04:27:52;2.90;;;1.73;;
53062;SDS011;40529;52.172;10.548;2022-10-01T04:30:27;3.65;;;1.92;;
53062;SDS011;40529;52.172;10.548;2022-10-01T04:32:53;2.72;;;1.90;;
53062;SDS011;40529;52.172;10.548;2022-10-01T04:35:19;3.65;;;1.88;;
53062;SDS011;40529;52.172;10.548;2022-10-01T04:37:46;5.50;;;2.10;;
53062;SDS011;40529;52.172;10.548;2022-10-01T04:40:12;3.70;;;2.00;;
53062;SDS011;40529;52.172;10.548;2022-10-01T04:42:39;2.13;;;1.92;;
53062;SDS011;40529;52.172;10.548;2022-10-01T04:45:07;2.90;;;1.83;;
53062;SDS011;40529;52.172;10.548;2022-10-01T04:47:33;4.68;;;2.75;;
53062;SDS011;40529;52.172;10.548;2022-10-01T04:49:59;4.30;;;1.95;;
53062;SDS011;40529;52.172;10.548;2022-10-01T04:52:25;4.82;;;2.33;;
53062;SDS011;40529;52.172;10.548;2022-10-01T04:54:51;2.83;;;2.10;;
53062;SDS011;40529;52.172;10.548;2022-10-01T04:57:17;5.35;;;2.00;;
53062;SDS011;40529;52.172;10.548;2022-10-01T04:59:45;3.08;;;1.88;;
53062;SDS011;40529;52.172;10.548;2022-10-01T05:02:11;2.15;;;1.75;;
53062;SDS011;40529;52.172;10.548;2022-10-01T05:04:37;5.20;;;1.90;;
53062;SDS011;40529;52.172;10.548;2022-10-01T05:07:04;3.53;;;2.30;;
53062;SDS011;40529;52.172;10.548;2022-10-01T05:09:30;1.98;;;1.70;;
53062;SDS011;40529;52.172;10.548;2022-10-01T05:11:56;4.20;;;1.95;;
53062;SDS011;40529;52.172;10.548;2022-10-01T05:14:22;4.63;;;2.67;;
53062;SDS011;40529;52.172;10.548;2022-10-01T05:16:50;3.13;;;2.17;;
53062;SDS011;40529;52.172;10.548;2022-10-01T05:19:16;4.95;;;2.05;;
53062;SDS011;40529;52.172;10.548;2022-10-01T05:21:42;4.20;;;1.95;;
53062;SDS011;40529;52.172;10.548;2022-10-01T05:24:08;3.30;;;2.05;;
53062;SDS011;40529;52.172;10.548;2022-10-01T05:26:35;2.60;;;1.88;;
53062;SDS011;40529;52.172;10.548;2022-10-01T05:29:03;3.50;;;2.30;;
53062;SDS011;40529;52.172;10.548;2022-10-01T05:31:30;2.42;;;1.88;;
53062;SDS011;40529;52.172;10.548;2022-10-01T05:33:57;5.93;;;2.20;;
53062;SDS011;40529;52.172;10.548;2022-10-01T05:36:23;3.70;;;1.85;;
53062;SDS011;40529;52.172;10.548;2022-10-01T05:38:49;2.10;;;1.85;;
53062;SDS011;40529;52.172;10.548;2022-10-01T05:41:16;2.58;;;1.77;;
53062;SDS011;40529;52.172;10.548;2022-10-01T05:43:42;2.35;;;1.80;;
53062;SDS011;40529;52.172;10.548;2022-10-01T05:46:08;4.70;;;2.10;;
53062;SDS011;40529;52.172;10.548;2022-10-01T05:48:34;3.95;;;1.98;;
53062;SDS011;40529;52.172;10.548;2022-10-01T05:51:02;3.47;;;1.88;;
53062;SDS011;40529;52.172;10.548;2022-10-01T05:53:30;2.67;;;1.80;;
53062;SDS011;40529;52.172;10.548;2022-10-01T05:55:59;4.05;;;2.10;;
53062;SDS011;40529;52.172;10.548;2022-10-01T05:58:28;2.95;;;1.75;;
53062;SDS011;40529;52.172;10.548;2022-10-01T06:00:55;4.13;;;1.63;;
53062;SDS011;40529;52.172;10.548;2022-10-01T06:03:21;4.78;;;2.10;;
53062;SDS011;40529;52.172;10.548;2022-10-01T06:05:47;2.53;;;1.65;;
53062;SDS011;40529;52.172;10.548;2022-10-01T06:08:13;2.55;;;2.28;;
53062;SDS011;40529;52.172;10.548;2022-10-01T06:10:39;3.25;;;1.83;;
53062;SDS011;40529;52.172;10.548;2022-10-01T06:13:06;3.55;;;2.00;;
53062;SDS011;40529;52.172;10.548;2022-10-01T06:15:33;3.55;;;2.20;;
53062;SDS011;40529;52.172;10.548;2022-10-01T06:18:05;3.83;;;2.50;;
53062;SDS011;40529;52.172;10.548;2022-10-01T06:20:32;4.00;;;2.22;;
53062;SDS011;40529;52.172;10.548;2022-10-01T06:22:58;4.00;;;2.03;;
53062;SDS011;40529;52.172;10.548;2022-10-01T06:25:24;4.78;;;2.50;;
53062;SDS011;40529;52.172;10.548;2022-10-01T06:27:54;3.10;;;2.03;;
53062;SDS011;40529;52.172;10.548;2022-10-01T06:30:25;4.78;;;2.30;;
53062;SDS011;40529;52.172;10.548;2022-10-01T06:35:17;3.85;;;2.50;;
53062;SDS011;40529;52.172;10.548;2022-10-01T06:37:45;2.50;;;2.30;;
53062;SDS011;40529;52.172;10.548;2022-10-01T06:40:11;6.07;;;2.70;;
53062;SDS011;40529;52.172;10.548;2022-10-01T06:42:37;3.53;;;1.85;;
53062;SDS011;40529;52.172;10.548;2022-10-01T06:45:03;3.00;;;2.40;;
53062;SDS011;40529;52.172;10.548;2022-10-01T06:47:29;4.30;;;2.17;;
53062;SDS011;40529;52.172;10.548;2022-10-01T06:49:55;3.15;;;2.30;;
53062;SDS011;40529;52.172;10.548;2022-10-01T06:52:23;4.55;;;2.42;;
53062;SDS011;40529;52.172;10.548;2022-10-01T06:55:08;4.32;;;2.30;;
53062;SDS011;40529;52.172;10.548;2022-10-01T06:57:34;3.63;;;2.67;;
53062;SDS011;40529;52.172;10.548;2022-10-01T07:00:00;3.58;;;2.47;;
53062;SDS011;40529;52.172;10.548;2022-10-01T07:02:26;3.33;;;2.60;;
53062;SDS011;40529;52.172;10.548;2022-10-01T07:04:57;4.22;;;2.22;;
53062;SDS011;40529;52.172;10.548;2022-10-01T07:07:24;4.38;;;1.95;;
53062;SDS011;40529;52.172;10.548;2022-10-01T07:09:50;4.65;;;2.53;;
53062;SDS011;40529;52.172;10.548;2022-10-01T07:12:16;4.68;;;2.20;;
53062;SDS011;40529;52.172;10.548;2022-10-01T07:14:43;3.30;;;2.10;;
53062;SDS011;40529;52.172;10.548;2022-10-01T07:17:09;3.65;;;2.60;;
53062;SDS011;40529;52.172;10.548;2022-10-01T07:19:35;3.28;;;2.30;;
53062;SDS011;40529;52.172;10.548;2022-10-01T07:22:01;3.13;;;2.13;;
53062;SDS011;40529;52.172;10.548;2022-10-01T07:24:27;4.35;;;2.55;;
53062;SDS011;40529;52.172;10.548;2022-10-01T07:26:53;3.22;;;2.40;;
53062;SDS011;40529;52.172;10.548;2022-10-01T07:29:21;5.00;;;2.60;;
53062;SDS011;40529;52.172;10.548;2022-10-01T07:31:48;4.32;;;2.60;;
53062;SDS011;40529;52.172;10.548;2022-10-01T07:34:14;4.60;;;2.45;;
53062;SDS011;40529;52.172;10.548;2022-10-01T07:36:40;2.85;;;2.10;;
53062;SDS011;40529;52.172;10.548;2022-10-01T07:39:10;1.67;;;1.40;;
53062;SDS011;40529;52.172;10.548;2022-10-01T07:41:36;2.60;;;2.10;;
53062;SDS011;40529;52.172;10.548;2022-10-01T07:44:02;2.90;;;2.40;;
53062;SDS011;40529;52.172;10.548;2022-10-01T07:46:28;2.95;;;2.10;;
53062;SDS011;40529;52.172;10.548;2022-10-01T07:48:54;3.28;;;1.92;;
53062;SDS011;40529;52.172;10.548;2022-10-01T07:51:20;4.03;;;1.92;;
53062;SDS011;40529;52.172;10.548;2022-10-01T07:53:48;2.40;;;2.03;;
53062;SDS011;40529;52.172;10.548;2022-10-01T07:56:14;4.50;;;1.73;;
53062;SDS011;40529;52.172;10.548;2022-10-01T07:58:41;2.78;;;1.60;;
53062;SDS011;40529;52.172;10.548;2022-10-01T08:01:07;2.10;;;1.75;;
53062;SDS011;40529;52.172;10.548;2022-10-01T08:03:34;4.45;;;1.85;;
53062;SDS011;40529;52.172;10.548;2022-10-01T08:06:00;2.20;;;1.98;;
53062;SDS011;40529;52.172;10.548;2022-10-01T08:08:29;2.33;;;1.88;;
53062;SDS011;40529;52.172;10.548;2022-10-01T08:10:55;3.08;;;1.73;;
53062;SDS011;40529;52.172;10.548;2022-10-01T08:13:22;3.50;;;1.65;;
53062;SDS011;40529;52.172;10.548;2022-10-01T08:15:49;2.83;;;1.67;;
53062;SDS011;40529;52.172;10.548;2022-10-01T08:18:18;2.53;;;2.00;;
53062;SDS011;40529;52.172;10.548;2022-10-01T08:20:44;1.67;;;1.48;;
53062;SDS011;40529;52.172;10.548;2022-10-01T08:23:11;2.78;;;1.70;;
53062;SDS011;40529;52.172;10.548;2022-10-01T08:25:38;2.53;;;1.60;;
53062;SDS011;40529;52.172;10.548;2022-10-01T08:28:04;1.50;;;1.40;;
53062;SDS011;40529;52.172;10.548;2022-10-01T08:30:31;3.10;;;1.60;;
53062;SDS011;40529;52.172;10.548;2022-10-01T08:32:58;1.58;;;1.33;;
53062;SDS011;40529;52.172;10.548;2022-10-01T08:35:24;1.40;;;1.30;;
53062;SDS011;40529;52.172;10.548;2022-10-01T08:37:50;3.38;;;1.50;;
53062;SDS011;40529;52.172;10.548;2022-10-01T08:40:19;1.60;;;1.20;;
53062;SDS011;40529;52.172;10.548;2022-10-01T08:45:13;1.30;;;1.20;;
53062;SDS011;40529;52.172;10.548;2022-10-01T08:47:42;1.40;;;1.30;;
53062;SDS011;40529;52.172;10.548;2022-10-01T08:50:15;1.35;;;1.25;;
53062;SDS011;40529;52.172;10.548;2022-10-01T08:52:49;1.20;;;1.10;;
53062;SDS011;40529;52.172;10.548;2022-10-01T08:55:18;1.30;;;1.00;;
53062;SDS011;40529;52.172;10.548;2022-10-01T08:57:50;1.08;;;0.98;;
53062;SDS011;40529;52.172;10.548;2022-10-01T09:00:17;1.20;;;0.90;;
53062;SDS011;40529;52.172;10.548;2022-10-01T09:02:44;1.73;;;1.00;;
53062;SDS011;40529;52.172;10.548;2022-10-01T09:20:51;1.13;;;1.02;;
53062;SDS011;40529;52.172;10.548;2022-10-01T09:25:44;2.05;;;1.02;;
53062;SDS011;40529;52.172;10.548;2022-10-01T09:28:14;1.00;;;0.80;;
53062;SDS011;40529;52.172;10.548;2022-10-01T09:30:42;1.85;;;0.68;;
53062;SDS011;40529;52.172;10.548;2022-10-01T09:33:15;1.73;;;1.08;;
53062;SDS011;40529;52.172;10.548;2022-10-01T09:38:49;1.52;;;1.30;;
53062;SDS011;40529;52.172;10.548;2022-10-01T09:41:07;2.65;;;1.02;;
53062;SDS011;40529;52.172;10.548;2022-10-01T09:43:35;2.78;;;1.00;;
53062;SDS011;40529;52.172;10.548;2022-10-01T09:46:02;0.82;;;0.82;;
53062;SDS011;40529;52.172;10.548;2022-10-01T09:51:24;2.00;;;0.70;;
53062;SDS011;40529;52.172;10.548;2022-10-01T09:56:58;1.23;;;0.90;;
53062;SDS011;40529;52.172;10.548;2022-10-01T09:59:26;1.63;;;1.13;;
53062;SDS011;40529;52.172;10.548;2022-10-01T10:04:19;1.10;;;0.70;;
53062;SDS011;40529;52.172;10.548;2022-10-01T10:06:47;1.20;;;0.90;;
53062;SDS011;40529;52.172;10.548;2022-10-01T10:09:15;0.80;;;0.80;;
53062;SDS011;40529;52.172;10.548;2022-10-01T10:11:41;1.77;;;0.88;;
53062;SDS011;40529;52.172;10.548;2022-10-01T10:14:16;1.60;;;0.68;;
53062;SDS011;40529;52.172;10.548;2022-10-01T10:16:44;1.05;;;0.90;;
53062;SDS011;40529;52.172;10.548;2022-10-01T10:19:15;3.10;;;0.80;;
53062;SDS011;40529;52.172;10.548;2022-10-01T10:21:52;0.80;;;0.80;;
53062;SDS011;40529;52.172;10.548;2022-10-01T10:24:30;2.15;;;0.80;;
53062;SDS011;40529;52.172;10.548;2022-10-01T10:26:57;0.80;;;0.77;;
53062;SDS011;40529;52.172;10.548;2022-10-01T10:29:28;0.95;;;0.77;;
53062;SDS011;40529;52.172;10.548;2022-10-01T10:31:55;0.77;;;0.70;;
53062;SDS011;40529;52.172;10.548;2022-10-01T10:36:55;1.65;;;0.60;;
53062;SDS011;40529;52.172;10.548;2022-10-01T10:39:26;1.70;;;0.85;;
53062;SDS011;40529;52.172;10.548;2022-10-01T10:41:53;0.98;;;0.70;;
53062;SDS011;40529;52.172;10.548;2022-10-01T10:44:20;0.85;;;0.70;;
53062;SDS011;40529;52.172;10.548;2022-10-01T10:46:47;0.60;;;0.60;;
53062;SDS011;40529;52.172;10.548;2022-10-01T10:51:46;0.70;;;0.70;;
53062;SDS011;40529;52.172;10.548;2022-10-01T10:54:29;0.75;;;0.52;;
53062;SDS011;40529;52.172;10.548;2022-10-01T10:59:24;0.70;;;0.70;;
53062;SDS011;40529;52.172;10.548;2022-10-01T11:01:50;0.90;;;0.60;;
53062;SDS011;40529;52.172;10.548;2022-10-01T11:07:02;0.95;;;0.50;;
53062;SDS011;40529;52.172;10.548;2022-10-01T11:09:34;0.65;;;0.60;;
53062;SDS011;40529;52.172;10.548;2022-10-01T11:12:08;0.70;;;0.70;;
53062;SDS011;40529;52.172;10.548;2022-10-01T11:19:37;5.10;;;1.23;;
53062;SDS011;40529;52.172;10.548;2022-10-01T11:40:02;0.90;;;0.60;;
53062;SDS011;40529;52.172;10.548;2022-10-01T11:42:30;0.60;;;0.60;;
53062;SDS011;40529;52.172;10.548;2022-10-01T11:47:30;0.98;;;0.80;;
53062;SDS011;40529;52.172;10.548;2022-10-01T11:49:59;0.60;;;0.60;;
53062;SDS011;40529;52.172;10.548;2022-10-01T11:52:37;2.90;;;0.70;;
53062;SDS011;40529;52.172;10.548;2022-10-01T11:55:08;0.65;;;0.60;;
53062;SDS011;40529;52.172;10.548;2022-10-01T11:57:56;2.30;;;0.70;;
53062;SDS011;40529;52.172;10.548;2022-10-01T12:00:43;1.10;;;0.60;;
53062;SDS011;40529;52.172;10.548;2022-10-01T12:03:14;1.90;;;0.70;;
53062;SDS011;40529;52.172;10.548;2022-10-01T12:05:42;2.60;;;0.70;;
53062;SDS011;40529;52.172;10.548;2022-10-01T12:10:55;1.23;;;0.70;;
53062;SDS011;40529;52.172;10.548;2022-10-01T12:13:33;1.25;;;0.63;;
53062;SDS011;40529;52.172;10.548;2022-10-01T12:16:04;0.75;;;0.60;;
53062;SDS011;40529;52.172;10.548;2022-10-01T12:18:41;2.60;;;0.75;;
53062;SDS011;40529;52.172;10.548;2022-10-01T12:21:13;1.02;;;0.70;;
53062;SDS011;40529;52.172;10.548;2022-10-01T12:23:44;0.95;;;0.70;;
53062;SDS011;40529;52.172;10.548;2022-10-01T12:28:39;0.73;;;0.63;;
53062;SDS011;40529;52.172;10.548;2022-10-01T12:36:22;1.88;;;0.70;;
53062;SDS011;40529;52.172;10.548;2022-10-01T12:48:56;1.40;;;0.82;;
53062;SDS011;40529;52.172;10.548;2022-10-01T12:51:32;1.08;;;0.90;;
53062;SDS011;40529;52.172;10.548;2022-10-01T12:54:09;3.15;;;1.20;;
53062;SDS011;40529;52.172;10.548;2022-10-01T12:56:39;1.33;;;1.20;;
53062;SDS011;40529;52.172;10.548;2022-10-01T12:59:12;2.50;;;1.10;;
53062;SDS011;40529;52.172;10.548;2022-10-01T13:14:31;2.55;;;1.00;;
53062;SDS011;40529;52.172;10.548;2022-10-01T13:17:00;0.93;;;0.93;;
53062;SDS011;40529;52.172;10.548;2022-10-01T13:24:56;1.30;;;1.10;;
53062;SDS011;40529;52.172;10.548;2022-10-01T13:32:31;2.42;;;1.15;;
53062;SDS011;40529;52.172;10.548;2022-10-01T13:34:58;3.85;;;1.00;;
53062;SDS011;40529;52.172;10.548;2022-10-01T13:39:54;3.13;;;1.10;;
53062;SDS011;40529;52.172;10.548;2022-10-01T13:42:23;1.98;;;0.88;;
53062;SDS011;40529;52.172;10.548;2022-10-01T13:45:01;1.40;;;1.05;;
53062;SDS011;40529;52.172;10.548;2022-10-01T13:47:31;2.40;;;1.10;;
53062;SDS011;40529;52.172;10.548;2022-10-01T13:52:43;1.80;;;1.23;;
53062;SDS011;40529;52.172;10.548;2022-10-01T13:55:26;2.00;;;1.40;;
53062;SDS011;40529;52.172;10.548;2022-10-01T13:58:02;2.40;;;1.20;;
53062;SDS011;40529;52.172;10.548;2022-10-01T14:00:29;2.05;;;1.10;;
53062;SDS011;40529;52.172;10.548;2022-10-01T14:03:20;2.38;;;1.20;;
53062;SDS011;40529;52.172;10.548;2022-10-01T14:05:51;1.77;;;1.00;;
53062;SDS011;40529;52.172;10.548;2022-10-01T14:08:22;2.40;;;1.15;;
53062;SDS011;40529;52.172;10.548;2022-10-01T14:10:54;1.77;;;1.10;;
53062;SDS011;40529;52.172;10.548;2022-10-01T14:13:46;1.95;;;1.02;;
53062;SDS011;40529;52.172;10.548;2022-10-01T14:16:42;3.47;;;1.30;;
53062;SDS011;40529;52.172;10.548;2022-10-01T14:19:16;3.67;;;1.05;;
53062;SDS011;40529;52.172;10.548;2022-10-01T14:22:08;3.08;;;0.93;;
53062;SDS011;40529;52.172;10.548;2022-10-01T14:27:08;3.22;;;1.20;;
53062;SDS011;40529;52.172;10.548;2022-10-01T14:37:11;3.35;;;1.20;;
53062;SDS011;40529;52.172;10.548;2022-10-01T14:39:39;2.85;;;1.20;;
53062;SDS011;40529;52.172;10.548;2022-10-01T14:42:09;1.60;;;1.10;;
53062;SDS011;40529;52.172;10.548;2022-10-01T14:44:38;1.38;;;1.10;;
53062;SDS011;40529;52.172;10.548;2022-10-01T14:47:22;4.68;;;1.30;;
53062;SDS011;40529;52.172;10.548;2022-10-01T14:49:49;2.08;;;1.45;;
53062;SDS011;40529;52.172;10.548;2022-10-01T14:52:20;3.28;;;1.42;;
53062;SDS011;40529;52.172;10.548;2022-10-01T14:59:51;2.30;;;1.00;;
53062;SDS011;40529;52.172;10.548;2022-10-01T15:02:18;1.48;;;0.68;;
53062;SDS011;40529;52.172;10.548;2022-10-01T15:04:49;2.47;;;0.90;;
53062;SDS011;40529;52.172;10.548;2022-10-01T15:07:15;1.58;;;0.82;;
53062;SDS011;40529;52.172;10.548;2022-10-01T15:09:42;2.65;;;0.93;;
53062;SDS011;40529;52.172;10.548;2022-10-01T15:12:09;4.88;;;1.30;;
53062;SDS011;40529;52.172;10.548;2022-10-01T15:14:36;5.78;;;1.50;;
53062;SDS011;40529;52.172;10.548;2022-10-01T15:17:03;3.97;;;1.55;;
53062;SDS011;40529;52.172;10.548;2022-10-01T15:19:29;5.75;;;2.88;;
53062;SDS011;40529;52.172;10.548;2022-10-01T15:21:56;5.35;;;2.58;;
53062;SDS011;40529;52.172;10.548;2022-10-01T15:26:59;5.97;;;2.05;;
53062;SDS011;40529;52.172;10.548;2022-10-01T15:29:25;5.28;;;1.73;;
53062;SDS011;40529;52.172;10.548;2022-10-01T15:31:52;5.68;;;2.03;;
53062;SDS011;40529;52.172;10.548;2022-10-01T15:34:18;5.20;;;1.80;;
53062;SDS011;40529;52.172;10.548;2022-10-01T15:36:46;5.78;;;1.65;;
53062;SDS011;40529;52.172;10.548;2022-10-01T15:39:22;4.15;;;1.33;;
53062;SDS011;40529;52.172;10.548;2022-10-01T15:41:49;4.68;;;1.42;;
53062;SDS011;40529;52.172;10.548;2022-10-01T15:46:54;3.00;;;1.55;;
53062;SDS011;40529;52.172;10.548;2022-10-01T15:49:38;4.97;;;1.77;;
53062;SDS011;40529;52.172;10.548;2022-10-01T15:52:04;4.63;;;1.70;;
53062;SDS011;40529;52.172;10.548;2022-10-01T15:54:55;6.47;;;1.50;;
53062;SDS011;40529;52.172;10.548;2022-10-01T15:57:22;5.38;;;1.38;;
53062;SDS011;40529;52.172;10.548;2022-10-01T15:59:50;2.72;;;1.15;;
53062;SDS011;40529;52.172;10.548;2022-10-01T16:02:27;3.95;;;1.50;;
53062;SDS011;40529;52.172;10.548;2022-10-01T16:05:01;3.95;;;1.50;;
53062;SDS011;40529;52.172;10.548;2022-10-01T16:07:28;4.05;;;1.83;;
53062;SDS011;40529;52.172;10.548;2022-10-01T16:09:56;4.70;;;1.80;;
53062;SDS011;40529;52.172;10.548;2022-10-01T16:12:22;3.45;;;2.00;;
53062;SDS011;40529;52.172;10.548;2022-10-01T16:14:58;6.00;;;2.58;;
53062;SDS011;40529;52.172;10.548;2022-10-01T16:17:26;5.20;;;1.70;;
53062;SDS011;40529;52.172;10.548;2022-10-01T16:19:53;3.10;;;1.80;;
53062;SDS011;40529;52.172;10.548;2022-10-01T16:22:27;5.88;;;1.45;;
53062;SDS011;40529;52.172;10.548;2022-10-01T16:27:43;1.98;;;0.98;;
53062;SDS011;40529;52.172;10.548;2022-10-01T16:30:19;5.22;;;1.60;;
53062;SDS011;40529;52.172;10.548;2022-10-01T16:32:46;4.15;;;1.00;;
53062;SDS011;40529;52.172;10.548;2022-10-01T16:37:39;2.80;;;1.38;;
53062;SDS011;40529;52.172;10.548;2022-10-01T16:40:05;3.65;;;1.75;;
53062;SDS011;40529;52.172;10.548;2022-10-01T16:42:31;4.25;;;1.77;;
53062;SDS011;40529;52.172;10.548;2022-10-01T16:45:01;6.47;;;1.80;;
53062;SDS011;40529;52.172;10.548;2022-10-01T16:47:28;5.65;;;1.85;;
53062;SDS011;40529;52.172;10.548;2022-10-01T16:49:54;7.05;;;2.45;;
53062;SDS011;40529;52.172;10.548;2022-10-01T16:52:20;5.80;;;2.28;;
53062;SDS011;40529;52.172;10.548;2022-10-01T16:54:46;8.15;;;2.10;;
53062;SDS011;40529;52.172;10.548;2022-10-01T16:57:13;7.03;;;2.50;;
53062;SDS011;40529;52.172;10.548;2022-10-01T16:59:40;11.35;;;3.13;;
53062;SDS011;40529;52.172;10.548;2022-10-01T17:02:10;6.43;;;2.15;;
53062;SDS011;40529;52.172;10.548;2022-10-01T17:04:37;5.70;;;2.30;;
53062;SDS011;40529;52.172;10.548;2022-10-01T17:07:03;8.70;;;2.92;;
53062;SDS011;40529;52.172;10.548;2022-10-01T17:09:29;9.30;;;2.97;;
53062;SDS011;40529;52.172;10.548;2022-10-01T17:11:55;4.65;;;2.70;;
53062;SDS011;40529;52.172;10.548;2022-10-01T17:14:22;5.00;;;2.63;;
53062;SDS011;40529;52.172;10.548;2022-10-01T17:16:48;8.27;;;2.78;;
53062;SDS011;40529;52.172;10.548;2022-10-01T17:19:15;6.00;;;2.50;;
53062;SDS011;40529;52.172;10.548;2022-10-01T17:21:41;7.50;;;2.75;;
53062;SDS011;40529;52.172;10.548;2022-10-01T17:24:07;7.20;;;2.53;;
53062;SDS011;40529;52.172;10.548;2022-10-01T17:26:35;7.93;;;2.78;;